Terminal Aerodrome Forecast
Issued by NWS Blacksburg, VA

Current Version | Previous Version | Text Only | Print | Product List | Glossary Off
Versions: 1 2 3 4 5 6 7 8 9 10 11 12 13 14 15 16 17 18 19 20 21 22 23 24 25 26 27 28 29 30

000
FTUS41 KRNK 211721
TAFBLF
TAF
KBLF 211721Z 2118/2218 VRB03KT P6SM VCTS SCT030 BKN045CB
     FM220100 14005KT P6SM VCSH BKN035 OVC080
     FM220400 14004KT P6SM BKN035
     FM221000 12003KT 5SM BR SCT005 BKN025
     FM221400 14004KT P6SM BKN040=

USA.gov is the U.S. government's official web portal to all federal, state and local government web resources and services.